Time;durP1;ratioP1;P1;durP2;ratioP2;P2;SDS_P1;SDS_P2;PMS_P1;PMS_P2;Temp;Humidity;BMP_temperature;BMP_pressure;BME280_temperature;BME280_humidity;BME280_pressure;Samples;Min_cycle;Max_cycle;Signal;HPM_P1;HPM_P2
2021/09/24 00:02:02;;;;;;;;;;;;;;;9.18;68.50;100032.72;4995859;28;2508;-56
2021/09/24 00:04:31;;;;;;;;;;;;;;;9.07;68.45;100031.88;5013183;28;888;-57
2021/09/24 00:06:57;;;;;;;;;;;;;;;8.91;69.35;100030.22;5014009;28;744;-56
2021/09/24 00:09:25;;;;;;;;;;;;;;;8.72;69.90;100025.00;5013338;28;834;-56
2021/09/24 00:11:51;;;;;;;;;;;;;;;8.54;70.33;100033.16;5013421;28;1256;-56
2021/09/24 00:14:18;;;;;;;;;;;;;;;8.43;70.64;100035.00;5013182;28;925;-57
2021/09/24 00:16:45;;;;;;;;;;;;;;;8.30;70.62;100029.81;4995505;28;1886;-56
2021/09/24 00:19:12;;;;;;;;;;;;;;;8.15;71.14;100023.38;5013149;28;902;-56
2021/09/24 00:21:38;;;;;;;;;;;;;;;8.01;70.96;100028.75;5012977;28;859;-56
2021/09/24 00:24:05;;;;;;;;;;;;;;;7.84;71.64;100030.16;4995451;28;835;-56
2021/09/24 00:26:32;;;;;;;;;;;;;;;7.75;72.45;100024.19;5011989;28;803;-56
2021/09/24 00:28:58;;;;;;;;;;;;;;;7.72;72.10;100027.69;5012834;28;858;-57
2021/09/24 00:31:26;;;;;;;;;;;;;;;7.80;72.78;100025.81;5012742;28;846;-56
2021/09/24 00:33:54;;;;;;;;;;;;;;;7.93;73.40;100025.13;4995235;28;899;-55
2021/09/24 00:36:21;;;;;;;;;;;;;;;8.09;72.79;100029.63;5012606;28;1890;-56
2021/09/24 00:38:49;;;;;;;;;;;;;;;8.16;72.83;100024.94;5013219;28;803;-56
2021/09/24 00:41:16;;;;;;;;;;;;;;;8.21;72.87;100026.56;5012723;28;1263;-56
2021/09/24 00:43:43;;;;;;;;;;;;;;;8.32;73.09;100021.13;5012810;28;831;-56
2021/09/24 00:46:11;;;;;;;;;;;;;;;8.36;73.53;100016.44;5012875;28;866;-56
2021/09/24 00:48:38;;;;;;;;;;;;;;;8.38;73.54;100014.09;5012699;28;819;-57
2021/09/24 00:51:05;;;;;;;;;;;;;;;8.39;73.74;100013.72;5012683;28;965;-56
2021/09/24 00:53:32;;;;;;;;;;;;;;;8.39;73.45;100013.72;4995017;28;1849;-56
2021/09/24 00:55:59;;;;;;;;;;;;;;;8.33;73.66;100020.75;5012551;28;862;-56
2021/09/24 00:58:27;;;;;;;;;;;;;;;8.30;74.25;100007.78;5012335;28;1973;-57
2021/09/24 01:00:54;;;;;;;;;;;;;;;8.37;74.03;100001.53;5012393;28;811;-57
2021/09/24 01:03:21;;;;;;;;;;;;;;;8.42;73.81;100003.16;5012280;28;926;-56
2021/09/24 01:05:49;;;;;;;;;;;;;;;8.28;73.66;100010.13;5012380;28;855;-57
2021/09/24 01:08:16;;;;;;;;;;;;;;;8.13;73.92;100002.91;5012115;28;958;-57
2021/09/24 01:10:44;;;;;;;;;;;;;;;8.29;74.28;99989.66;5012126;28;861;-57
2021/09/24 01:13:11;;;;;;;;;;;;;;;8.46;73.76;99979.19;5012070;28;989;-57
2021/09/24 01:15:38;;;;;;;;;;;;;;;8.54;73.16;99976.09;5012060;28;1530;-57
2021/09/24 01:18:05;;;;;;;;;;;;;;;8.57;72.57;99966.25;5012005;28;1902;-56
2021/09/24 01:20:32;;;;;;;;;;;;;;;8.44;72.43;99957.50;5012041;28;839;-56
2021/09/24 01:23:00;;;;;;;;;;;;;;;8.18;72.44;99969.50;4994310;28;751;-56
2021/09/24 01:25:26;;;;;;;;;;;;;;;7.94;73.34;99968.16;5011924;28;1267;-55
2021/09/24 01:27:53;;;;;;;;;;;;;;;7.77;73.67;99973.13;5011806;28;912;-56
2021/09/24 01:30:20;;;;;;;;;;;;;;;7.75;74.80;99967.19;5011942;28;890;-56
2021/09/24 01:32:47;;;;;;;;;;;;;;;7.75;74.84;99967.19;5011898;28;831;-56
2021/09/24 01:35:15;;;;;;;;;;;;;;;7.74;75.91;99967.56;5011737;28;839;-56
2021/09/24 01:37:42;;;;;;;;;;;;;;;7.66;75.54;99968.66;5011468;28;1886;-56
2021/09/24 01:40:11;;;;;;;;;;;;;;;7.55;75.93;99963.06;5011714;28;1278;-56
2021/09/24 01:42:37;;;;;;;;;;;;;;;7.55;75.56;99960.31;5011747;28;922;-56
2021/09/24 01:45:04;;;;;;;;;;;;;;;7.56;75.43;99965.44;5011988;28;934;-55
2021/09/24 01:47:32;;;;;;;;;;;;;;;7.44;75.10;99967.66;5011742;28;815;-57
2021/09/24 01:49:59;;;;;;;;;;;;;;;7.39;75.94;99963.31;5011945;28;877;-56
2021/09/24 01:52:25;;;;;;;;;;;;;;;7.36;75.72;99959.34;5011763;28;831;-56
2021/09/24 01:54:51;;;;;;;;;;;;;;;7.29;75.37;99952.97;5011601;28;866;-56
2021/09/24 01:57:18;;;;;;;;;;;;;;;7.20;75.41;99944.25;5011452;28;1964;-56
2021/09/24 01:59:45;;;;;;;;;;;;;;;7.11;76.26;99948.06;4994005;28;1209;-55
2021/09/24 02:02:11;;;;;;;;;;;;;;;7.08;76.68;99940.59;5011818;28;891;-56
2021/09/24 02:04:38;;;;;;;;;;;;;;;7.08;75.66;99940.59;5011798;28;1015;-55
2021/09/24 02:07:06;;;;;;;;;;;;;;;7.18;75.17;99939.13;5011642;28;799;-56
2021/09/24 02:09:34;;;;;;;;;;;;;;;7.46;74.68;99938.63;5011370;28;925;-56
2021/09/24 02:12:01;;;;;;;;;;;;;;;7.67;73.70;99948.25;5011567;28;823;-56
2021/09/24 02:14:27;;;;;;;;;;;;;;;7.55;73.56;99947.38;5011413;28;891;-55
2021/09/24 02:16:54;;;;;;;;;;;;;;;7.19;74.38;99954.47;5011638;28;1890;-56
2021/09/24 02:19:21;;;;;;;;;;;;;;;6.89;75.44;99958.03;5011774;28;866;-56
2021/09/24 02:21:48;;;;;;;;;;;;;;;6.69;75.54;99951.88;5011321;28;919;-56
2021/09/24 02:24:15;;;;;;;;;;;;;;;6.60;76.00;99954.13;5011247;28;982;-56
2021/09/24 02:26:41;;;;;;;;;;;;;;;6.64;76.86;99954.19;5011195;28;843;-57
2021/09/24 02:29:09;;;;;;;;;;;;;;;6.82;76.34;99952.44;5011247;28;938;-55
2021/09/24 02:31:36;;;;;;;;;;;;;;;7.01;75.92;99961.69;5011661;28;847;-56
2021/09/24 02:34:03;;;;;;;;;;;;;;;7.13;75.20;99951.25;5011335;28;971;-57
2021/09/24 02:36:30;;;;;;;;;;;;;;;7.25;74.89;99954.91;5011234;28;1878;-56
2021/09/24 02:38:57;;;;;;;;;;;;;;;7.31;74.34;99953.41;5011162;28;1516;-58
2021/09/24 02:41:24;;;;;;;;;;;;;;;7.34;74.34;99950.69;5011234;28;873;-56
2021/09/24 02:43:51;;;;;;;;;;;;;;;7.38;73.85;99949.91;5011242;28;815;-57
2021/09/24 02:46:18;;;;;;;;;;;;;;;7.35;73.55;99949.50;5011165;28;799;-57
2021/09/24 02:48:45;;;;;;;;;;;;;;;7.29;73.46;99945.50;5011706;28;811;-56
2021/09/24 02:51:12;;;;;;;;;;;;;;;7.22;73.75;99945.44;5014730;28;827;-56
2021/09/24 02:53:39;;;;;;;;;;;;;;;7.09;74.17;99953.16;5014582;28;949;-56
2021/09/24 02:56:06;;;;;;;;;;;;;;;6.88;74.51;99948.19;5014567;28;826;-57
2021/09/24 02:58:33;;;;;;;;;;;;;;;6.70;74.73;99953.47;5014538;28;1985;-56
2021/09/24 03:01:00;;;;;;;;;;;;;;;6.50;74.99;99952.78;4996827;28;851;-55
2021/09/24 03:03:27;;;;;;;;;;;;;;;6.44;76.11;99943.28;5014485;28;846;-57
2021/09/24 03:05:54;;;;;;;;;;;;;;;6.48;75.75;99943.34;5014520;28;811;-56
2021/09/24 03:08:21;;;;;;;;;;;;;;;6.60;75.84;99945.88;5014376;28;818;-57
2021/09/24 03:10:48;;;;;;;;;;;;;;;6.66;75.59;99947.13;5014341;28;843;-57
2021/09/24 03:13:15;;;;;;;;;;;;;;;6.67;75.80;99945.97;5014639;28;905;-57
2021/09/24 03:15:42;;;;;;;;;;;;;;;6.69;75.08;99949.13;5014378;28;991;-56
2021/09/24 03:18:10;;;;;;;;;;;;;;;6.72;74.92;99945.66;5014240;28;858;-56
2021/09/24 03:20:37;;;;;;;;;;;;;;;6.72;74.62;99948.41;5014055;28;1007;-56
2021/09/24 03:23:04;;;;;;;;;;;;;;;6.65;75.10;99945.53;5013945;28;993;-56
2021/09/24 03:25:31;;;;;;;;;;;;;;;6.47;75.32;99937.06;5014011;28;923;-56
2021/09/24 03:27:56;;;;;;;;;;;;;;;6.24;75.36;99941.84;5013965;28;2022;-56
2021/09/24 03:30:24;;;;;;;;;;;;;;;6.05;76.13;99938.03;5013963;28;858;-56
2021/09/24 03:32:51;;;;;;;;;;;;;;;5.98;76.21;99939.88;5013786;28;911;-56
2021/09/24 03:35:18;;;;;;;;;;;;;;;5.95;76.85;99935.91;5013784;28;855;-56
2021/09/24 03:37:45;;;;;;;;;;;;;;;5.90;76.78;99945.22;5013876;28;792;-57
2021/09/24 03:40:13;;;;;;;;;;;;;;;5.85;76.67;99950.22;5013672;28;1242;-56
2021/09/24 03:42:39;;;;;;;;;;;;;;;5.91;77.68;99949.53;5013775;28;823;-56
2021/09/24 03:45:08;;;;;;;;;;;;;;;6.01;77.31;99948.16;5013658;28;922;-56
2021/09/24 03:47:36;;;;;;;;;;;;;;;6.05;77.21;99946.25;5013441;28;1906;-56
2021/09/24 03:50:03;;;;;;;;;;;;;;;6.08;77.33;99958.44;5013660;28;871;-57
2021/09/24 03:52:29;;;;;;;;;;;;;;;6.26;76.80;99947.75;5013516;28;845;-56
2021/09/24 03:54:56;;;;;;;;;;;;;;;6.45;76.38;99944.09;5013471;28;846;-56
2021/09/24 03:57:23;;;;;;;;;;;;;;;6.56;75.35;99956.03;4995793;28;1355;-56
2021/09/24 03:59:50;;;;;;;;;;;;;;;6.56;75.86;99950.53;5013240;28;918;-57
2021/09/24 04:02:16;;;;;;;;;;;;;;;6.51;75.75;99942.63;5013603;28;796;-56
2021/09/24 04:04:43;;;;;;;;;;;;;;;6.46;75.87;99951.94;5013312;28;906;-57
2021/09/24 04:07:10;;;;;;;;;;;;;;;6.50;75.47;99949.25;5013283;28;1890;-57
2021/09/24 04:09:36;;;;;;;;;;;;;;;6.66;75.54;99949.09;5013181;28;890;-57
2021/09/24 04:12:04;;;;;;;;;;;;;;;6.69;74.87;99943.63;5013084;28;923;-57
2021/09/24 04:14:31;;;;;;;;;;;;;;;6.59;75.20;99949.00;5013244;28;910;-57
2021/09/24 04:16:59;;;;;;;;;;;;;;;6.45;74.99;99946.84;5013389;28;872;-56
2021/09/24 04:19:25;;;;;;;;;;;;;;;6.28;74.81;99945.44;5013088;28;874;-57
2021/09/24 04:21:52;;;;;;;;;;;;;;;6.25;75.89;99943.41;5013010;28;807;-57
2021/09/24 04:24:19;;;;;;;;;;;;;;;6.42;75.90;99951.13;5012787;28;1017;-57
2021/09/24 04:26:46;;;;;;;;;;;;;;;6.77;75.36;99946.50;5012930;28;1886;-57
2021/09/24 04:29:13;;;;;;;;;;;;;;;7.01;74.52;99947.97;5012901;28;819;-57
2021/09/24 04:31:40;;;;;;;;;;;;;;;7.24;74.28;99950.56;5012823;28;988;-57
2021/09/24 04:34:09;;;;;;;;;;;;;;;7.45;72.72;99942.56;5012842;28;862;-57
2021/09/24 04:36:36;;;;;;;;;;;;;;;7.69;73.02;99943.16;5012649;28;961;-56
2021/09/24 04:39:04;;;;;;;;;;;;;;;7.92;71.89;99937.47;5012528;28;1239;-57
2021/09/24 04:41:31;;;;;;;;;;;;;;;8.14;70.88;99935.66;5012651;28;803;-57
2021/09/24 04:43:58;;;;;;;;;;;;;;;8.35;70.46;99930.28;5012712;28;819;-57
2021/09/24 04:46:26;;;;;;;;;;;;;;;8.54;69.82;99926.50;5012356;28;1910;-57
2021/09/24 04:48:54;;;;;;;;;;;;;;;8.76;69.13;99930.13;4994907;28;1169;-58
2021/09/24 04:51:21;;;;;;;;;;;;;;;8.97;68.32;99923.91;5012465;28;870;-57
2021/09/24 04:53:48;;;;;;;;;;;;;;;9.20;67.54;99915.31;5012368;28;827;-57
2021/09/24 04:56:15;;;;;;;;;;;;;;;9.40;66.28;99910.22;5012346;28;918;-57
2021/09/24 04:58:42;;;;;;;;;;;;;;;9.65;65.99;99914.22;5012296;28;915;-58
2021/09/24 05:01:10;;;;;;;;;;;;;;;9.87;64.94;99915.78;5012265;28;815;-58
2021/09/24 05:03:36;;;;;;;;;;;;;;;10.02;64.37;99903.53;5012267;28;803;-57
2021/09/24 05:06:04;;;;;;;;;;;;;;;10.16;63.78;99899.97;5012103;28;912;-57
2021/09/24 05:08:31;;;;;;;;;;;;;;;10.29;63.74;99900.38;5012354;28;1984;-57
2021/09/24 05:16:28;;;;;;;;;;;;;;;10.89;60.94;99898.59;6022086;22;1595;-59
2021/09/24 05:18:56;;;;;;;;;;;;;;;11.12;60.13;99911.91;5032001;28;1643;-59
2021/09/24 05:21:22;;;;;;;;;;;;;;;11.37;59.60;99908.19;5032163;28;936;-59
2021/09/24 05:23:49;;;;;;;;;;;;;;;11.77;58.09;99911.47;5031684;28;913;-59
2021/09/24 05:26:15;;;;;;;;;;;;;;;12.21;57.61;99909.94;5031615;28;1914;-59
2021/09/24 05:28:43;;;;;;;;;;;;;;;12.16;57.17;99902.06;5031633;28;846;-59
2021/09/24 05:31:10;;;;;;;;;;;;;;;11.70;57.93;99892.94;5031670;28;803;-59
2021/09/24 05:33:37;;;;;;;;;;;;;;;11.26;59.59;99888.13;5032007;28;1187;-59
2021/09/24 05:36:04;;;;;;;;;;;;;;;11.06;60.50;99890.63;5031590;28;803;-59
2021/09/24 05:38:31;;;;;;;;;;;;;;;10.94;61.06;99889.88;5031557;28;925;-59
2021/09/24 05:40:58;;;;;;;;;;;;;;;10.85;61.46;99880.47;5031539;28;884;-58
2021/09/24 05:43:25;;;;;;;;;;;;;;;10.68;61.87;99869.06;5031486;28;822;-58
2021/09/24 05:45:52;;;;;;;;;;;;;;;10.56;62.75;99869.50;5031464;28;814;-59
2021/09/24 05:48:19;;;;;;;;;;;;;;;10.60;63.32;99889.63;5031326;28;1975;-58
2021/09/24 05:50:46;;;;;;;;;;;;;;;11.03;62.00;99892.19;5031698;28;890;-58
2021/09/24 05:53:14;;;;;;;;;;;;;;;11.51;61.16;99893.50;5031434;28;885;-59
2021/09/24 05:55:41;;;;;;;;;;;;;;;11.94;59.74;99891.19;5031458;28;883;-59
2021/09/24 05:58:08;;;;;;;;;;;;;;;12.08;58.49;99898.59;5031730;28;791;-59
2021/09/24 06:00:35;;;;;;;;;;;;;;;11.81;58.87;99896.41;5031393;28;900;-59
2021/09/24 06:03:00;;;;;;;;;;;;;;;11.70;59.24;99895.72;5031936;28;767;-59
2021/09/24 06:05:27;;;;;;;;;;;;;;;12.31;57.54;99895.19;5031425;28;794;-58
2021/09/24 06:07:55;;;;;;;;;;;;;;;13.45;55.08;99892.97;5031224;28;1890;-59
2021/09/24 06:10:22;;;;;;;;;;;;;;;14.86;51.81;99891.25;5031434;28;889;-59
2021/09/24 06:12:49;;;;;;;;;;;;;;;16.05;48.55;99884.53;5031307;28;882;-59
2021/09/24 06:15:17;;;;;;;;;;;;;;;17.11;46.14;99883.97;5031091;28;831;-59
2021/09/24 06:17:45;;;;;;;;;;;;;;;17.40;44.74;99889.47;5031364;28;1210;-59
2021/09/24 06:20:13;;;;;;;;;;;;;;;18.39;42.55;99892.16;5031324;28;899;-59
2021/09/24 06:22:41;;;;;;;;;;;;;;;18.02;41.67;99893.88;5031307;28;1295;-56
2021/09/24 06:25:09;;;;;;;;;;;;;;;16.49;44.84;99912.03;5033798;28;878;-57
2021/09/24 06:27:36;;;;;;;;;;;;;;;15.49;47.21;99913.34;5034916;28;1910;-57
2021/09/24 06:30:05;;;;;;;;;;;;;;;14.86;49.02;99917.06;5034764;28;1120;-57
2021/09/24 06:32:33;;;;;;;;;;;;;;;14.39;50.17;99910.84;5034833;28;1024;-56
2021/09/24 06:35:01;;;;;;;;;;;;;;;14.05;51.16;99918.19;5017377;28;911;-56
2021/09/24 06:37:28;;;;;;;;;;;;;;;13.89;51.68;99920.84;5034804;28;822;-56
2021/09/24 06:39:55;;;;;;;;;;;;;;;13.93;51.66;99904.88;5034768;28;882;-56
2021/09/24 06:42:22;;;;;;;;;;;;;;;14.07;51.21;99899.09;5034653;28;874;-56
2021/09/24 06:44:48;;;;;;;;;;;;;;;14.25;50.81;99892.41;5034595;28;799;-56
2021/09/24 06:47:17;;;;;;;;;;;;;;;14.42;50.19;99882.97;5034571;28;1943;-56
2021/09/24 06:49:44;;;;;;;;;;;;;;;14.26;50.17;99885.66;5016858;28;906;-56
2021/09/24 06:52:11;;;;;;;;;;;;;;;14.13;50.38;99868.03;5034773;28;819;-56
2021/09/24 06:54:38;;;;;;;;;;;;;;;13.97;50.53;99866.72;5034446;28;863;-56
2021/09/24 06:57:06;;;;;;;;;;;;;;;13.99;50.74;99871.84;5034436;28;818;-56
2021/09/24 06:59:34;;;;;;;;;;;;;;;14.20;50.15;99859.56;5034256;28;862;-56
2021/09/24 07:02:01;;;;;;;;;;;;;;;14.42;50.06;99869.06;5034295;28;860;-56
2021/09/24 07:04:28;;;;;;;;;;;;;;;14.55;49.28;99862.84;5034296;28;811;-56
2021/09/24 07:06:55;;;;;;;;;;;;;;;14.74;48.87;99870.44;5034234;28;1894;-56
2021/09/24 07:09:22;;;;;;;;;;;;;;;15.16;48.34;99862.38;5034165;28;873;-56
2021/09/24 07:11:51;;;;;;;;;;;;;;;15.23;47.45;99859.41;5034241;28;862;-56
2021/09/24 07:14:19;;;;;;;;;;;;;;;15.05;47.50;99867.41;5033899;28;941;-56
2021/09/24 07:16:47;;;;;;;;;;;;;;;14.96;47.22;99873.56;5034011;28;1236;-56
2021/09/24 07:19:14;;;;;;;;;;;;;;;14.85;47.57;99884.91;5034031;28;798;-56
2021/09/24 07:21:42;;;;;;;;;;;;;;;15.03;47.39;99884.53;5033975;28;826;-56
2021/09/24 07:24:09;;;;;;;;;;;;;;;15.09;47.25;99885.59;5033881;28;819;-56
2021/09/24 07:26:35;;;;;;;;;;;;;;;15.35;46.86;99896.94;5033825;28;1914;-56
2021/09/24 07:29:02;;;;;;;;;;;;;;;15.32;46.28;99898.59;5033770;28;866;-56
2021/09/24 07:31:29;;;;;;;;;;;;;;;15.40;46.81;99898.44;5034047;28;818;-56
2021/09/24 07:33:56;;;;;;;;;;;;;;;16.19;45.73;99896.50;5033962;28;867;-57
2021/09/24 07:36:23;;;;;;;;;;;;;;;17.06;43.75;99904.84;5033094;28;896;-57
2021/09/24 07:38:50;;;;;;;;;;;;;;;17.50;42.22;99893.16;5033554;28;953;-57
2021/09/24 07:41:17;;;;;;;;;;;;;;;17.59;41.62;99901.63;5033780;28;842;-57
2021/09/24 07:43:48;;;;;;;;;;;;;;;17.60;42.19;99894.81;5033432;28;893;-57
2021/09/24 07:46:16;;;;;;;;;;;;;;;17.92;40.82;99893.00;5033518;28;814;-57
2021/09/24 07:48:43;;;;;;;;;;;;;;;17.99;40.77;99897.56;5033635;28;1890;-57
2021/09/24 07:51:10;;;;;;;;;;;;;;;17.99;40.95;99900.34;5033393;28;799;-57
2021/09/24 07:53:37;;;;;;;;;;;;;;;18.55;40.51;99903.19;5033368;28;854;-57
2021/09/24 07:56:05;;;;;;;;;;;;;;;19.07;38.96;99903.69;5033308;28;830;-57
2021/09/24 07:58:32;;;;;;;;;;;;;;;18.93;39.21;99907.06;5033149;28;1357;-57
2021/09/24 08:00:59;;;;;;;;;;;;;;;19.27;39.18;99900.53;5033915;28;838;-57
2021/09/24 08:06:49;;;;;;;;;;;;;;;18.89;38.15;99881.22;5033115;28;1961;-57
2021/09/24 08:09:16;;;;;;;;;;;;;;;18.88;38.38;99885.22;5033081;28;811;-57
2021/09/24 08:11:44;;;;;;;;;;;;;;;19.29;38.86;99880.47;5033030;28;814;-57
2021/09/24 08:14:11;;;;;;;;;;;;;;;19.49;38.43;99868.84;5032869;28;877;-57
2021/09/24 08:16:37;;;;;;;;;;;;;;;19.93;38.08;99877.09;5032882;28;1196;-57
2021/09/24 08:19:05;;;;;;;;;;;;;;;19.77;37.00;99864.91;5032592;28;1225;-57
2021/09/24 08:21:32;;;;;;;;;;;;;;;19.72;37.78;99868.31;5032826;28;842;-57
2021/09/24 08:23:59;;;;;;;;;;;;;;;19.73;37.17;99867.06;5032702;28;965;-57
2021/09/24 08:26:24;;;;;;;;;;;;;;;19.97;37.67;99872.09;5014895;28;2284;-57
2021/09/24 08:28:50;;;;;;;;;;;;;;;20.24;35.93;99870.56;5032724;28;873;-57
2021/09/24 08:31:17;;;;;;;;;;;;;;;20.26;36.97;99865.25;5032671;28;819;-57
2021/09/24 08:33:46;;;;;;;;;;;;;;;20.62;35.73;99858.09;5032562;28;859;-57
2021/09/24 08:36:14;;;;;;;;;;;;;;;20.12;36.27;99850.63;5032447;28;843;-57
2021/09/24 08:38:41;;;;;;;;;;;;;;;19.95;36.54;99846.53;5032472;28;828;-57
2021/09/24 08:41:08;;;;;;;;;;;;;;;20.21;36.27;99843.44;5032342;28;919;-57
2021/09/24 08:43:35;;;;;;;;;;;;;;;20.00;36.83;99829.09;5014612;28;1002;-57
2021/09/24 08:46:02;;;;;;;;;;;;;;;19.23;38.50;99823.47;5031937;28;945;-57
2021/09/24 08:48:29;;;;;;;;;;;;;;;19.29;38.05;99811.19;5031867;28;2034;-57
2021/09/24 08:50:56;;;;;;;;;;;;;;;18.87;37.57;99805.28;5032274;28;889;-57
2021/09/24 08:53:24;;;;;;;;;;;;;;;18.79;38.42;99810.34;5032174;28;814;-57
2021/09/24 08:55:52;;;;;;;;;;;;;;;19.17;37.93;99806.47;5032125;28;922;-57
2021/09/24 08:58:19;;;;;;;;;;;;;;;19.74;36.40;99801.34;5032109;28;823;-57
2021/09/24 09:00:47;;;;;;;;;;;;;;;20.42;35.04;99802.41;5032183;28;865;-57
2021/09/24 09:03:18;;;;;;;;;;;;;;;20.19;35.10;99793.41;5031981;28;924;-57
2021/09/24 09:05:54;;;;;;;;;;;;;;;20.08;34.75;99787.47;5032246;28;822;-57
2021/09/24 09:08:27;;;;;;;;;;;;;;;19.62;35.44;99777.00;5032164;28;1914;-57
2021/09/24 09:11:00;;;;;;;;;;;;;;;19.53;35.78;99780.56;5031872;28;930;-57
2021/09/24 09:13:38;;;;;;;;;;;;;;;19.58;35.38;99774.34;5032287;28;866;-57
2021/09/24 09:16:21;;;;;;;;;;;;;;;19.59;35.12;99780.75;5031879;28;1048;-57
2021/09/24 09:18:49;;;;;;;;;;;;;;;19.53;35.51;99777.00;5031603;28;1231;-57
2021/09/24 09:21:21;;;;;;;;;;;;;;;19.59;35.81;99786.34;5031841;28;932;-57
2021/09/24 09:23:52;;;;;;;;;;;;;;;19.51;34.80;99777.44;5031755;28;830;-57
2021/09/24 09:26:19;;;;;;;;;;;;;;;19.54;35.63;99787.75;5031768;28;952;-57
2021/09/24 09:28:49;;;;;;;;;;;;;;;19.77;34.63;99771.59;5031632;28;1975;-57
2021/09/24 09:31:19;;;;;;;;;;;;;;;20.07;35.43;99778.28;5031928;28;865;-57
2021/09/24 09:33:45;;;;;;;;;;;;;;;20.25;34.58;99771.09;5032083;28;941;-57
2021/09/24 09:36:20;;;;;;;;;;;;;;;20.01;34.22;99771.72;5031890;28;873;-57
2021/09/24 09:38:47;;;;;;;;;;;;;;;20.17;34.80;99770.66;5031480;28;974;-57
2021/09/24 09:41:13;;;;;;;;;;;;;;;20.43;34.52;99768.25;5031591;28;830;-57
2021/09/24 09:43:47;;;;;;;;;;;;;;;20.87;34.60;99758.59;5031404;28;939;-57
2021/09/24 09:46:17;;;;;;;;;;;;;;;20.86;32.94;99760.66;5031382;28;939;-57
2021/09/24 09:48:58;;;;;;;;;;;;;;;20.55;33.90;99774.94;5031473;28;1951;-57
2021/09/24 09:51:25;;;;;;;;;;;;;;;20.52;33.13;99750.59;5031427;28;862;-57
2021/09/24 09:53:51;;;;;;;;;;;;;;;20.50;32.67;99747.50;5031592;28;803;-57
2021/09/24 09:56:19;;;;;;;;;;;;;;;20.40;32.49;99746.75;5031421;28;806;-56
2021/09/24 09:58:45;;;;;;;;;;;;;;;20.16;33.00;99743.81;5033593;28;943;-57
2021/09/24 10:01:15;;;;;;;;;;;;;;;20.17;32.68;99739.78;5035390;28;842;-57
2021/09/24 10:03:50;;;;;;;;;;;;;;;20.48;32.45;99730.34;5035345;28;936;-60
2021/09/24 10:06:27;;;;;;;;;;;;;;;20.73;32.53;99724.34;5018285;28;795;-57
2021/09/24 10:08:58;;;;;;;;;;;;;;;20.70;32.05;99713.31;5035259;28;826;-57
2021/09/24 10:11:36;;;;;;;;;;;;;;;20.77;31.86;99710.91;5035161;28;873;-57
2021/09/24 10:14:04;;;;;;;;;;;;;;;20.99;32.30;99705.03;5035233;28;901;-57
2021/09/24 10:16:31;;;;;;;;;;;;;;;21.14;32.26;99705.09;5035101;28;1345;-57
2021/09/24 10:18:59;;;;;;;;;;;;;;;21.45;30.79;99691.97;5034857;28;1380;-57
2021/09/24 10:21:27;;;;;;;;;;;;;;;21.75;31.68;99685.13;5035000;28;946;-57
2021/09/24 10:23:54;;;;;;;;;;;;;;;21.92;30.13;99687.50;5034931;28;938;-57
2021/09/24 10:26:32;;;;;;;;;;;;;;;21.89;29.98;99668.75;5034995;28;822;-57
2021/09/24 10:29:06;;;;;;;;;;;;;;;21.98;30.36;99646.16;5034798;28;900;-57
2021/09/24 10:31:37;;;;;;;;;;;;;;;22.34;28.72;99670.34;5034921;28;877;-57
2021/09/24 10:34:05;;;;;;;;;;;;;;;22.71;28.71;99669.09;5034941;28;850;-57
2021/09/24 10:36:36;;;;;;;;;;;;;;;22.64;28.11;99659.03;5034686;28;1004;-57
2021/09/24 10:39:04;;;;;;;;;;;;;;;22.35;28.06;99657.03;5034733;28;799;-57
2021/09/24 10:41:31;;;;;;;;;;;;;;;21.93;28.53;99650.41;5034627;28;866;-57
2021/09/24 10:43:58;;;;;;;;;;;;;;;21.83;28.23;99646.16;5016845;28;866;-57
2021/09/24 10:46:24;;;;;;;;;;;;;;;21.57;28.55;99651.53;5034656;28;827;-56
2021/09/24 10:49:09;;;;;;;;;;;;;;;21.27;29.52;99636.63;5034441;28;1878;-56
2021/09/24 10:51:45;;;;;;;;;;;;;;;21.37;29.71;99630.44;5034583;28;862;-56
2021/09/24 10:54:16;;;;;;;;;;;;;;;21.80;28.86;99624.59;5034523;28;806;-57
2021/09/24 10:56:57;;;;;;;;;;;;;;;22.27;28.32;99624.91;5034828;28;918;-57
2021/09/24 10:59:29;;;;;;;;;;;;;;;22.42;28.37;99620.81;5034432;28;786;-58
2021/09/24 11:01:57;;;;;;;;;;;;;;;22.59;28.11;99625.91;5034720;28;894;-58
2021/09/24 11:04:42;;;;;;;;;;;;;;;22.88;27.63;99613.75;5034440;28;920;-57
2021/09/24 11:07:10;;;;;;;;;;;;;;;22.39;28.03;99612.56;5034130;28;2345;-57
2021/09/24 11:09:57;;;;;;;;;;;;;;;21.90;28.98;99603.56;5033244;28;1060;-57
2021/09/24 11:12:24;;;;;;;;;;;;;;;21.54;28.97;99613.16;5033855;28;1822;-56
2021/09/24 11:15:18;;;;;;;;;;;;;;;21.77;29.34;99605.91;5033996;28;841;-57
2021/09/24 11:17:46;;;;;;;;;;;;;;;22.61;27.81;99607.25;5029887;28;1645;-57
2021/09/24 11:20:26;;;;;;;;;;;;;;;22.98;27.49;99601.09;5033945;28;939;-57
2021/09/24 11:22:53;;;;;;;;;;;;;;;23.17;26.37;99589.53;5034209;28;843;-57
2021/09/24 11:25:19;;;;;;;;;;;;;;;23.34;26.54;99582.06;5033854;28;938;-57
2021/09/24 11:27:47;;;;;;;;;;;;;;;23.37;26.15;99575.41;5033710;28;2009;-57
2021/09/24 11:30:21;;;;;;;;;;;;;;;23.27;26.28;99579.66;5033755;28;844;-57
2021/09/24 11:32:50;;;;;;;;;;;;;;;22.59;26.97;99580.84;5033658;28;938;-56
2021/09/24 11:35:37;;;;;;;;;;;;;;;22.23;27.47;99580.06;5033760;28;1041;-57
2021/09/24 11:38:05;;;;;;;;;;;;;;;22.28;28.22;99579.38;5033593;28;1842;-56
2021/09/24 11:40:34;;;;;;;;;;;;;;;22.63;27.79;99582.16;5015745;28;716;-56
2021/09/24 11:43:04;;;;;;;;;;;;;;;22.76;27.78;99579.00;5033490;28;949;-57
2021/09/24 11:45:31;;;;;;;;;;;;;;;22.76;27.82;99569.78;5033717;28;958;-57
2021/09/24 11:48:09;;;;;;;;;;;;;;;22.78;27.25;99573.66;5033492;28;1886;-56
2021/09/24 11:50:37;;;;;;;;;;;;;;;22.74;27.40;99563.88;5033548;28;936;-57
2021/09/24 11:53:09;;;;;;;;;;;;;;;23.32;27.03;99558.41;5033525;28;902;-57
2021/09/24 11:55:36;;;;;;;;;;;;;;;23.42;26.19;99546.47;5033258;28;922;-57
2021/09/24 11:58:10;;;;;;;;;;;;;;;23.40;26.22;99540.56;5033145;28;909;-57
2021/09/24 12:00:39;;;;;;;;;;;;;;;23.65;25.95;99539.00;5033412;28;874;-57
2021/09/24 12:03:05;;;;;;;;;;;;;;;23.80;25.62;99538.91;5033114;28;858;-56
2021/09/24 12:05:33;;;;;;;;;;;;;;;24.11;25.86;99523.22;5033090;28;847;-56
2021/09/24 12:08:00;;;;;;;;;;;;;;;24.65;25.16;99528.16;5015388;28;1890;-57
2021/09/24 12:10:27;;;;;;;;;;;;;;;24.82;24.70;99517.69;5032961;28;838;-57
2021/09/24 12:13:07;;;;;;;;;;;;;;;24.58;25.10;99514.50;5032933;28;928;-57
2021/09/24 12:15:55;;;;;;;;;;;;;;;24.55;25.04;99509.88;5032742;28;1181;-57
2021/09/24 12:18:22;;;;;;;;;;;;;;;24.53;25.29;99504.72;5032617;28;2097;-57
2021/09/24 12:20:59;;;;;;;;;;;;;;;24.35;24.96;99507.97;5032715;28;871;-57
2021/09/24 12:23:26;;;;;;;;;;;;;;;24.58;24.93;99500.38;5032729;28;945;-57
2021/09/24 12:25:57;;;;;;;;;;;;;;;24.76;24.67;99497.13;5032692;28;851;-57
2021/09/24 12:28:24;;;;;;;;;;;;;;;24.61;24.83;99494.50;5033137;28;1910;-57
2021/09/24 12:30:50;;;;;;;;;;;;;;;24.04;24.97;99501.09;5033132;28;826;-57
2021/09/24 12:33:18;;;;;;;;;;;;;;;23.68;25.01;99497.72;5033068;28;886;-57
2021/09/24 12:35:56;;;;;;;;;;;;;;;23.91;24.72;99481.00;5033036;28;539;-57
2021/09/24 12:38:24;;;;;;;;;;;;;;;24.67;24.53;99483.22;5032829;28;873;-57
2021/09/24 12:41:07;;;;;;;;;;;;;;;25.25;24.03;99482.88;5032251;28;927;-57
2021/09/24 12:43:35;;;;;;;;;;;;;;;25.61;23.65;99472.59;5032467;28;822;-57
2021/09/24 12:46:02;;;;;;;;;;;;;;;25.64;22.90;99463.06;5032370;28;790;-57
2021/09/24 12:48:37;;;;;;;;;;;;;;;25.57;22.76;99468.50;5032298;28;1886;-57
2021/09/24 12:51:04;;;;;;;;;;;;;;;25.61;23.02;99466.94;5032209;28;938;-57
2021/09/24 12:53:35;;;;;;;;;;;;;;;25.30;23.13;99459.47;5032165;28;844;-57
2021/09/24 12:56:03;;;;;;;;;;;;;;;24.45;23.83;99458.44;5033043;28;807;-57
2021/09/24 12:58:38;;;;;;;;;;;;;;;24.13;24.49;99454.97;5032560;28;849;-57
2021/09/24 13:01:06;;;;;;;;;;;;;;;23.62;24.73;99457.44;5032143;28;909;-57
2021/09/24 13:03:40;;;;;;;;;;;;;;;23.24;25.29;99454.56;5032063;28;965;-57
2021/09/24 13:06:06;;;;;;;;;;;;;;;22.87;25.91;99448.78;5032036;28;873;-56
2021/09/24 13:08:32;;;;;;;;;;;;;;;22.73;26.58;99441.22;5031767;28;1878;-57
2021/09/24 13:10:59;;;;;;;;;;;;;;;22.69;26.37;99440.66;5032002;28;897;-57
2021/09/24 13:16:29;;;;;;;;;;;;;;;22.42;26.53;99431.38;5032146;28;938;-57
2021/09/24 13:18:55;;;;;;;;;;;;;;;22.49;26.56;99427.34;5031732;28;1427;-56
2021/09/24 13:21:22;;;;;;;;;;;;;;;22.40;26.56;99443.16;5014199;28;807;-56
2021/09/24 13:23:52;;;;;;;;;;;;;;;22.34;26.84;99436.66;5032005;28;784;-57
2021/09/24 13:26:21;;;;;;;;;;;;;;;22.29;27.10;99436.59;5031684;28;910;-57